Wielsbeke, Belgium
Current Conditions -  °F | °C
As of 6:30 PM on Thursday 27 Nov 2014 (Local Time) from LFQQ Reporting Station
Overcast Overcast  
Wind Chill: 50°   Ceiling: 800
Heat Index: 50°   Visibility: 6mi
Dew Point: 48°   Wind: 5mph
Humidity: 94%   Direction: 160°SSE
Pressure: 29.65"   Gusts: NA
Location:  50.9°N, 3.37°E
Report Text: LFQQ 271730Z 16004KT 9999 OVC008 10/09 Q1004 NOSIG
Loading
Personal Weather Stations






























Interactive Weather Map New forecast layout! Learn more

10-Day Weather Forecast

Advertisements
Track Severe Weather on mobile